sensor_id;sensor_type;location;lat;lon;timestamp;P1;durP1;ratioP1;P2;durP2;ratioP2
24357;SDS011;13668;52.154;5.580;2023-12-22T00:02:00;3.97;;;0.75;;
24357;SDS011;13668;52.154;5.580;2023-12-22T00:04:29;10.18;;;1.80;;
24357;SDS011;13668;52.154;5.580;2023-12-22T00:06:55;6.90;;;0.90;;
24357;SDS011;13668;52.154;5.580;2023-12-22T00:09:21;4.85;;;0.98;;
24357;SDS011;13668;52.154;5.580;2023-12-22T00:11:47;5.90;;;1.00;;
24357;SDS011;13668;52.154;5.580;2023-12-22T00:14:13;4.53;;;0.63;;
24357;SDS011;13668;52.154;5.580;2023-12-22T00:16:39;3.78;;;1.30;;
24357;SDS011;13668;52.154;5.580;2023-12-22T00:19:05;6.60;;;0.82;;
24357;SDS011;13668;52.154;5.580;2023-12-22T00:21:31;2.25;;;0.68;;
24357;SDS011;13668;52.154;5.580;2023-12-22T00:24:00;2.20;;;0.73;;
24357;SDS011;13668;52.154;5.580;2023-12-22T00:26:26;2.22;;;0.50;;
24357;SDS011;13668;52.154;5.580;2023-12-22T00:28:54;2.08;;;0.70;;
24357;SDS011;13668;52.154;5.580;2023-12-22T00:31:20;4.55;;;0.50;;
24357;SDS011;13668;52.154;5.580;2023-12-22T00:33:46;2.47;;;0.30;;
24357;SDS011;13668;52.154;5.580;2023-12-22T00:36:12;1.50;;;0.80;;
24357;SDS011;13668;52.154;5.580;2023-12-22T00:38:38;4.68;;;1.08;;
24357;SDS011;13668;52.154;5.580;2023-12-22T00:41:04;1.13;;;0.30;;
24357;SDS011;13668;52.154;5.580;2023-12-22T00:43:30;2.15;;;0.43;;
24357;SDS011;13668;52.154;5.580;2023-12-22T00:45:56;3.80;;;1.13;;
24357;SDS011;13668;52.154;5.580;2023-12-22T00:48:22;2.95;;;0.95;;
24357;SDS011;13668;52.154;5.580;2023-12-22T00:50:48;4.72;;;0.80;;
24357;SDS011;13668;52.154;5.580;2023-12-22T00:53:14;3.33;;;0.73;;
24357;SDS011;13668;52.154;5.580;2023-12-22T00:55:40;1.73;;;0.65;;
24357;SDS011;13668;52.154;5.580;2023-12-22T00:58:06;2.85;;;0.70;;
24357;SDS011;13668;52.154;5.580;2023-12-22T01:00:32;4.85;;;0.73;;
24357;SDS011;13668;52.154;5.580;2023-12-22T01:02:58;2.78;;;0.60;;
24357;SDS011;13668;52.154;5.580;2023-12-22T01:05:24;7.25;;;1.27;;
24357;SDS011;13668;52.154;5.580;2023-12-22T01:07:50;3.17;;;1.05;;
24357;SDS011;13668;52.154;5.580;2023-12-22T01:10:16;3.00;;;1.27;;
24357;SDS011;13668;52.154;5.580;2023-12-22T01:12:42;3.42;;;0.60;;
24357;SDS011;13668;52.154;5.580;2023-12-22T01:15:08;2.83;;;0.50;;
24357;SDS011;13668;52.154;5.580;2023-12-22T01:17:34;2.55;;;0.32;;
24357;SDS011;13668;52.154;5.580;2023-12-22T01:20:00;5.22;;;0.80;;
24357;SDS011;13668;52.154;5.580;2023-12-22T01:22:26;4.38;;;0.70;;
24357;SDS011;13668;52.154;5.580;2023-12-22T01:24:52;1.65;;;0.50;;
24357;SDS011;13668;52.154;5.580;2023-12-22T01:27:17;7.13;;;0.80;;
24357;SDS011;13668;52.154;5.580;2023-12-22T01:29:44;1.88;;;0.32;;
24357;SDS011;13668;52.154;5.580;2023-12-22T01:32:10;5.35;;;0.80;;
24357;SDS011;13668;52.154;5.580;2023-12-22T01:34:36;4.20;;;0.60;;
24357;SDS011;13668;52.154;5.580;2023-12-22T01:37:02;5.03;;;0.75;;
24357;SDS011;13668;52.154;5.580;2023-12-22T01:39:28;2.85;;;0.38;;
24357;SDS011;13668;52.154;5.580;2023-12-22T01:41:54;5.78;;;0.88;;
24357;SDS011;13668;52.154;5.580;2023-12-22T01:44:20;3.72;;;0.40;;
24357;SDS011;13668;52.154;5.580;2023-12-22T01:46:46;3.65;;;0.60;;
24357;SDS011;13668;52.154;5.580;2023-12-22T01:49:12;4.60;;;0.60;;
24357;SDS011;13668;52.154;5.580;2023-12-22T01:51:38;1.33;;;0.88;;
24357;SDS011;13668;52.154;5.580;2023-12-22T01:54:05;4.00;;;0.60;;
24357;SDS011;13668;52.154;5.580;2023-12-22T01:56:31;7.75;;;0.63;;
24357;SDS011;13668;52.154;5.580;2023-12-22T01:58:59;2.90;;;0.70;;
24357;SDS011;13668;52.154;5.580;2023-12-22T02:01:25;6.20;;;1.08;;
24357;SDS011;13668;52.154;5.580;2023-12-22T02:03:51;3.42;;;0.63;;
24357;SDS011;13668;52.154;5.580;2023-12-22T02:06:18;4.32;;;0.85;;
24357;SDS011;13668;52.154;5.580;2023-12-22T02:08:47;3.83;;;0.50;;
24357;SDS011;13668;52.154;5.580;2023-12-22T02:11:14;3.58;;;0.80;;
24357;SDS011;13668;52.154;5.580;2023-12-22T02:13:40;2.00;;;0.70;;
24357;SDS011;13668;52.154;5.580;2023-12-22T02:16:09;2.70;;;0.47;;
24357;SDS011;13668;52.154;5.580;2023-12-22T02:18:38;3.97;;;0.68;;
24357;SDS011;13668;52.154;5.580;2023-12-22T02:21:05;1.88;;;0.60;;
24357;SDS011;13668;52.154;5.580;2023-12-22T02:23:31;1.80;;;0.55;;
24357;SDS011;13668;52.154;5.580;2023-12-22T02:25:57;3.58;;;0.95;;
24357;SDS011;13668;52.154;5.580;2023-12-22T02:28:27;2.03;;;0.47;;
24357;SDS011;13668;52.154;5.580;2023-12-22T02:30:57;2.47;;;1.08;;
24357;SDS011;13668;52.154;5.580;2023-12-22T02:33:26;3.85;;;0.80;;
24357;SDS011;13668;52.154;5.580;2023-12-22T02:35:53;9.20;;;0.95;;
24357;SDS011;13668;52.154;5.580;2023-12-22T02:38:23;8.10;;;1.08;;
24357;SDS011;13668;52.154;5.580;2023-12-22T02:40:50;7.78;;;1.13;;
24357;SDS011;13668;52.154;5.580;2023-12-22T02:43:16;2.95;;;0.85;;
24357;SDS011;13668;52.154;5.580;2023-12-22T02:45:45;11.65;;;1.13;;
24357;SDS011;13668;52.154;5.580;2023-12-22T02:48:11;6.22;;;1.50;;
24357;SDS011;13668;52.154;5.580;2023-12-22T02:50:37;6.53;;;1.33;;
24357;SDS011;13668;52.154;5.580;2023-12-22T02:53:03;11.98;;;1.77;;
24357;SDS011;13668;52.154;5.580;2023-12-22T02:55:29;11.30;;;2.17;;
24357;SDS011;13668;52.154;5.580;2023-12-22T02:57:55;17.58;;;1.48;;
24357;SDS011;13668;52.154;5.580;2023-12-22T03:00:21;1.42;;;0.52;;
24357;SDS011;13668;52.154;5.580;2023-12-22T03:02:47;0.30;;;0.30;;
24357;SDS011;13668;52.154;5.580;2023-12-22T03:05:13;4.00;;;0.70;;
24357;SDS011;13668;52.154;5.580;2023-12-22T03:07:39;2.67;;;0.50;;
24357;SDS011;13668;52.154;5.580;2023-12-22T03:10:07;3.50;;;0.73;;
24357;SDS011;13668;52.154;5.580;2023-12-22T03:12:35;3.10;;;0.50;;
24357;SDS011;13668;52.154;5.580;2023-12-22T03:15:05;3.15;;;0.50;;
24357;SDS011;13668;52.154;5.580;2023-12-22T03:17:31;1.63;;;0.60;;
24357;SDS011;13668;52.154;5.580;2023-12-22T03:19:57;2.30;;;0.80;;
24357;SDS011;13668;52.154;5.580;2023-12-22T03:22:29;2.90;;;0.80;;
24357;SDS011;13668;52.154;5.580;2023-12-22T03:24:55;2.75;;;0.50;;
24357;SDS011;13668;52.154;5.580;2023-12-22T03:27:24;0.47;;;0.20;;
24357;SDS011;13668;52.154;5.580;2023-12-22T03:29:50;4.35;;;0.82;;
24357;SDS011;13668;52.154;5.580;2023-12-22T03:32:18;4.15;;;1.00;;
24357;SDS011;13668;52.154;5.580;2023-12-22T03:34:44;1.10;;;0.25;;
24357;SDS011;13668;52.154;5.580;2023-12-22T03:37:10;2.30;;;0.60;;
24357;SDS011;13668;52.154;5.580;2023-12-22T03:39:36;1.98;;;0.40;;
24357;SDS011;13668;52.154;5.580;2023-12-22T03:42:02;5.03;;;0.52;;
24357;SDS011;13668;52.154;5.580;2023-12-22T03:44:28;2.17;;;0.73;;
24357;SDS011;13668;52.154;5.580;2023-12-22T03:46:54;3.40;;;0.75;;
24357;SDS011;13668;52.154;5.580;2023-12-22T03:49:21;3.05;;;0.73;;
24357;SDS011;13668;52.154;5.580;2023-12-22T03:51:47;2.42;;;1.23;;
24357;SDS011;13668;52.154;5.580;2023-12-22T03:54:13;5.55;;;1.30;;
24357;SDS011;13668;52.154;5.580;2023-12-22T03:56:40;2.63;;;0.93;;
24357;SDS011;13668;52.154;5.580;2023-12-22T03:59:06;5.15;;;0.98;;
24357;SDS011;13668;52.154;5.580;2023-12-22T04:01:32;3.20;;;0.63;;
24357;SDS011;13668;52.154;5.580;2023-12-22T04:03:58;3.10;;;0.80;;
24357;SDS011;13668;52.154;5.580;2023-12-22T04:06:24;2.47;;;0.50;;
24357;SDS011;13668;52.154;5.580;2023-12-22T04:08:51;0.30;;;0.30;;
24357;SDS011;13668;52.154;5.580;2023-12-22T04:11:17;1.02;;;0.93;;
24357;SDS011;13668;52.154;5.580;2023-12-22T04:13:43;2.15;;;0.82;;
24357;SDS011;13668;52.154;5.580;2023-12-22T04:16:09;4.05;;;0.57;;
24357;SDS011;13668;52.154;5.580;2023-12-22T04:18:35;2.30;;;0.63;;
24357;SDS011;13668;52.154;5.580;2023-12-22T04:21:01;4.80;;;1.25;;
24357;SDS011;13668;52.154;5.580;2023-12-22T04:23:27;10.18;;;1.10;;
24357;SDS011;13668;52.154;5.580;2023-12-22T04:25:53;3.55;;;1.42;;
24357;SDS011;13668;52.154;5.580;2023-12-22T04:28:19;5.60;;;1.05;;
24357;SDS011;13668;52.154;5.580;2023-12-22T04:30:45;5.88;;;0.85;;
24357;SDS011;13668;52.154;5.580;2023-12-22T04:33:11;9.35;;;1.20;;
24357;SDS011;13668;52.154;5.580;2023-12-22T04:35:37;5.93;;;1.75;;
24357;SDS011;13668;52.154;5.580;2023-12-22T04:38:03;1.30;;;0.52;;
24357;SDS011;13668;52.154;5.580;2023-12-22T04:40:29;8.05;;;1.25;;
24357;SDS011;13668;52.154;5.580;2023-12-22T04:42:55;8.15;;;1.00;;
24357;SDS011;13668;52.154;5.580;2023-12-22T04:45:21;6.90;;;1.65;;
24357;SDS011;13668;52.154;5.580;2023-12-22T04:47:47;4.88;;;1.00;;
24357;SDS011;13668;52.154;5.580;2023-12-22T04:50:13;5.88;;;1.38;;
24357;SDS011;13668;52.154;5.580;2023-12-22T04:52:39;7.47;;;0.80;;
24357;SDS011;13668;52.154;5.580;2023-12-22T04:55:05;4.38;;;1.17;;
24357;SDS011;13668;52.154;5.580;2023-12-22T04:57:31;6.03;;;1.10;;
24357;SDS011;13668;52.154;5.580;2023-12-22T04:59:57;10.25;;;1.35;;
24357;SDS011;13668;52.154;5.580;2023-12-22T05:02:23;7.20;;;0.98;;
24357;SDS011;13668;52.154;5.580;2023-12-22T05:04:48;3.25;;;1.33;;
24357;SDS011;13668;52.154;5.580;2023-12-22T05:07:14;3.45;;;1.00;;
24357;SDS011;13668;52.154;5.580;2023-12-22T05:09:43;7.68;;;2.25;;
24357;SDS011;13668;52.154;5.580;2023-12-22T05:12:09;4.68;;;1.08;;
24357;SDS011;13668;52.154;5.580;2023-12-22T05:14:35;7.50;;;0.98;;
24357;SDS011;13668;52.154;5.580;2023-12-22T05:17:01;8.82;;;1.70;;
24357;SDS011;13668;52.154;5.580;2023-12-22T05:19:30;10.20;;;1.13;;
24357;SDS011;13668;52.154;5.580;2023-12-22T05:21:56;5.93;;;2.13;;
24357;SDS011;13668;52.154;5.580;2023-12-22T05:24:22;5.50;;;1.38;;
24357;SDS011;13668;52.154;5.580;2023-12-22T05:26:50;4.15;;;1.52;;
24357;SDS011;13668;52.154;5.580;2023-12-22T05:29:16;1.92;;;1.42;;
24357;SDS011;13668;52.154;5.580;2023-12-22T05:31:42;8.48;;;1.27;;
24357;SDS011;13668;52.154;5.580;2023-12-22T05:34:07;3.55;;;0.88;;
24357;SDS011;13668;52.154;5.580;2023-12-22T05:36:35;3.95;;;1.13;;
24357;SDS011;13668;52.154;5.580;2023-12-22T05:39:01;4.45;;;1.38;;
24357;SDS011;13668;52.154;5.580;2023-12-22T05:41:27;4.93;;;1.50;;
24357;SDS011;13668;52.154;5.580;2023-12-22T05:43:53;8.00;;;1.13;;
24357;SDS011;13668;52.154;5.580;2023-12-22T05:46:25;9.65;;;1.90;;
24357;SDS011;13668;52.154;5.580;2023-12-22T05:48:51;6.97;;;1.23;;
24357;SDS011;13668;52.154;5.580;2023-12-22T05:51:17;4.32;;;1.40;;
24357;SDS011;13668;52.154;5.580;2023-12-22T05:53:43;8.27;;;1.17;;
24357;SDS011;13668;52.154;5.580;2023-12-22T05:56:21;7.50;;;1.10;;
24357;SDS011;13668;52.154;5.580;2023-12-22T05:58:47;10.10;;;1.83;;
24357;SDS011;13668;52.154;5.580;2023-12-22T06:01:16;6.13;;;1.30;;
24357;SDS011;13668;52.154;5.580;2023-12-22T06:03:43;4.60;;;0.90;;
24357;SDS011;13668;52.154;5.580;2023-12-22T06:06:09;5.15;;;1.10;;
24357;SDS011;13668;52.154;5.580;2023-12-22T06:08:36;5.20;;;1.20;;
24357;SDS011;13668;52.154;5.580;2023-12-22T06:11:02;5.38;;;1.63;;
24357;SDS011;13668;52.154;5.580;2023-12-22T06:13:28;11.60;;;1.73;;
24357;SDS011;13668;52.154;5.580;2023-12-22T06:15:54;2.78;;;0.93;;
24357;SDS011;13668;52.154;5.580;2023-12-22T06:18:23;7.80;;;1.52;;
24357;SDS011;13668;52.154;5.580;2023-12-22T06:20:49;6.28;;;1.27;;
24357;SDS011;13668;52.154;5.580;2023-12-22T06:23:14;11.93;;;1.98;;
24357;SDS011;13668;52.154;5.580;2023-12-22T06:25:40;7.90;;;1.33;;
24357;SDS011;13668;52.154;5.580;2023-12-22T06:28:07;7.75;;;1.27;;
24357;SDS011;13668;52.154;5.580;2023-12-22T06:30:33;4.40;;;0.90;;
24357;SDS011;13668;52.154;5.580;2023-12-22T06:32:59;6.20;;;1.23;;
24357;SDS011;13668;52.154;5.580;2023-12-22T06:35:26;7.45;;;1.60;;
24357;SDS011;13668;52.154;5.580;2023-12-22T06:37:52;4.53;;;0.80;;
24357;SDS011;13668;52.154;5.580;2023-12-22T06:40:19;4.80;;;1.38;;
24357;SDS011;13668;52.154;5.580;2023-12-22T06:42:45;8.63;;;1.17;;
24357;SDS011;13668;52.154;5.580;2023-12-22T06:45:11;4.47;;;1.13;;
24357;SDS011;13668;52.154;5.580;2023-12-22T06:47:37;11.15;;;1.83;;
24357;SDS011;13668;52.154;5.580;2023-12-22T06:50:03;4.25;;;1.60;;
24357;SDS011;13668;52.154;5.580;2023-12-22T06:52:29;6.93;;;1.50;;
24357;SDS011;13668;52.154;5.580;2023-12-22T06:54:56;3.83;;;1.45;;
24357;SDS011;13668;52.154;5.580;2023-12-22T06:57:22;6.75;;;1.40;;
24357;SDS011;13668;52.154;5.580;2023-12-22T06:59:48;10.48;;;2.45;;
24357;SDS011;13668;52.154;5.580;2023-12-22T07:02:20;5.53;;;1.00;;
24357;SDS011;13668;52.154;5.580;2023-12-22T07:04:59;5.70;;;1.45;;
24357;SDS011;13668;52.154;5.580;2023-12-22T07:07:27;12.82;;;1.85;;
24357;SDS011;13668;52.154;5.580;2023-12-22T07:09:54;5.78;;;0.98;;
24357;SDS011;13668;52.154;5.580;2023-12-22T07:12:20;3.50;;;0.90;;
24357;SDS011;13668;52.154;5.580;2023-12-22T07:14:46;8.45;;;1.70;;
24357;SDS011;13668;52.154;5.580;2023-12-22T07:17:12;12.30;;;3.03;;
24357;SDS011;13668;52.154;5.580;2023-12-22T07:19:38;6.90;;;1.75;;
24357;SDS011;13668;52.154;5.580;2023-12-22T07:22:04;10.50;;;1.48;;
24357;SDS011;13668;52.154;5.580;2023-12-22T07:24:30;7.32;;;1.88;;
24357;SDS011;13668;52.154;5.580;2023-12-22T07:26:58;9.55;;;1.67;;
24357;SDS011;13668;52.154;5.580;2023-12-22T07:29:24;12.27;;;1.83;;
24357;SDS011;13668;52.154;5.580;2023-12-22T07:31:50;8.93;;;1.73;;
24357;SDS011;13668;52.154;5.580;2023-12-22T07:34:16;9.25;;;2.35;;
24357;SDS011;13668;52.154;5.580;2023-12-22T07:36:43;7.43;;;1.42;;
24357;SDS011;13668;52.154;5.580;2023-12-22T07:39:09;12.55;;;2.58;;
24357;SDS011;13668;52.154;5.580;2023-12-22T07:41:36;11.18;;;2.20;;
24357;SDS011;13668;52.154;5.580;2023-12-22T07:44:01;11.10;;;2.15;;
24357;SDS011;13668;52.154;5.580;2023-12-22T07:46:27;25.58;;;3.03;;
24357;SDS011;13668;52.154;5.580;2023-12-22T07:48:54;10.00;;;2.35;;
24357;SDS011;13668;52.154;5.580;2023-12-22T07:51:20;10.82;;;2.15;;
24357;SDS011;13668;52.154;5.580;2023-12-22T07:53:46;12.20;;;1.55;;
24357;SDS011;13668;52.154;5.580;2023-12-22T07:56:12;4.80;;;1.63;;
24357;SDS011;13668;52.154;5.580;2023-12-22T07:58:38;13.25;;;2.25;;
24357;SDS011;13668;52.154;5.580;2023-12-22T08:01:07;7.55;;;2.42;;
24357;SDS011;13668;52.154;5.580;2023-12-22T08:03:35;7.80;;;2.28;;
24357;SDS011;13668;52.154;5.580;2023-12-22T08:06:02;9.70;;;1.63;;
24357;SDS011;13668;52.154;5.580;2023-12-22T08:08:28;5.93;;;2.08;;
24357;SDS011;13668;52.154;5.580;2023-12-22T08:10:54;7.85;;;1.77;;
24357;SDS011;13668;52.154;5.580;2023-12-22T08:13:20;5.30;;;1.77;;
24357;SDS011;13668;52.154;5.580;2023-12-22T08:15:46;4.20;;;1.70;;
24357;SDS011;13668;52.154;5.580;2023-12-22T08:18:12;5.93;;;1.08;;
24357;SDS011;13668;52.154;5.580;2023-12-22T08:20:38;9.60;;;2.03;;
24357;SDS011;13668;52.154;5.580;2023-12-22T08:23:04;9.15;;;2.53;;
24357;SDS011;13668;52.154;5.580;2023-12-22T08:25:30;10.05;;;2.42;;
24357;SDS011;13668;52.154;5.580;2023-12-22T08:27:56;5.97;;;1.35;;
24357;SDS011;13668;52.154;5.580;2023-12-22T08:30:22;8.73;;;1.80;;
24357;SDS011;13668;52.154;5.580;2023-12-22T08:32:49;11.75;;;1.55;;
24357;SDS011;13668;52.154;5.580;2023-12-22T08:35:15;7.25;;;2.25;;
24357;SDS011;13668;52.154;5.580;2023-12-22T08:37:41;11.93;;;1.98;;
24357;SDS011;13668;52.154;5.580;2023-12-22T08:40:07;10.00;;;2.58;;
24357;SDS011;13668;52.154;5.580;2023-12-22T08:42:33;12.93;;;3.10;;
24357;SDS011;13668;52.154;5.580;2023-12-22T08:44:59;9.85;;;2.03;;
24357;SDS011;13668;52.154;5.580;2023-12-22T08:47:27;12.23;;;2.58;;
24357;SDS011;13668;52.154;5.580;2023-12-22T08:49:53;6.55;;;1.88;;
24357;SDS011;13668;52.154;5.580;2023-12-22T08:52:19;9.70;;;1.98;;
24357;SDS011;13668;52.154;5.580;2023-12-22T08:54:45;4.75;;;1.65;;
24357;SDS011;13668;52.154;5.580;2023-12-22T08:57:11;7.78;;;2.40;;
24357;SDS011;13668;52.154;5.580;2023-12-22T08:59:37;13.10;;;3.20;;
24357;SDS011;13668;52.154;5.580;2023-12-22T09:02:03;10.98;;;2.53;;
24357;SDS011;13668;52.154;5.580;2023-12-22T09:04:30;8.07;;;1.25;;
24357;SDS011;13668;52.154;5.580;2023-12-22T09:06:56;6.50;;;1.10;;
24357;SDS011;13668;52.154;5.580;2023-12-22T09:09:22;3.92;;;1.25;;
24357;SDS011;13668;52.154;5.580;2023-12-22T09:11:49;4.53;;;1.08;;
24357;SDS011;13668;52.154;5.580;2023-12-22T09:14:15;7.38;;;1.45;;
24357;SDS011;13668;52.154;5.580;2023-12-22T09:16:41;4.70;;;1.40;;
24357;SDS011;13668;52.154;5.580;2023-12-22T09:19:09;9.77;;;2.80;;
24357;SDS011;13668;52.154;5.580;2023-12-22T09:21:35;8.07;;;1.80;;
24357;SDS011;13668;52.154;5.580;2023-12-22T09:24:01;10.68;;;1.70;;
24357;SDS011;13668;52.154;5.580;2023-12-22T09:26:27;8.68;;;2.03;;
24357;SDS011;13668;52.154;5.580;2023-12-22T09:28:53;7.30;;;1.23;;
24357;SDS011;13668;52.154;5.580;2023-12-22T09:31:19;8.98;;;2.13;;
24357;SDS011;13668;52.154;5.580;2023-12-22T09:33:45;4.10;;;1.90;;
24357;SDS011;13668;52.154;5.580;2023-12-22T09:36:11;6.88;;;1.55;;
24357;SDS011;13668;52.154;5.580;2023-12-22T09:38:37;5.25;;;1.15;;
24357;SDS011;13668;52.154;5.580;2023-12-22T09:41:03;8.65;;;1.80;;
24357;SDS011;13668;52.154;5.580;2023-12-22T09:43:29;3.80;;;1.40;;
24357;SDS011;13668;52.154;5.580;2023-12-22T09:45:56;1.48;;;0.70;;
24357;SDS011;13668;52.154;5.580;2023-12-22T09:48:23;1.63;;;0.80;;
24357;SDS011;13668;52.154;5.580;2023-12-22T09:50:53;4.03;;;0.70;;
24357;SDS011;13668;52.154;5.580;2023-12-22T09:53:20;1.70;;;1.60;;
24357;SDS011;13668;52.154;5.580;2023-12-22T09:55:46;0.98;;;0.75;;
24357;SDS011;13668;52.154;5.580;2023-12-22T09:58:13;3.08;;;0.60;;
24357;SDS011;13668;52.154;5.580;2023-12-22T10:00:40;4.10;;;0.95;;
24357;SDS011;13668;52.154;5.580;2023-12-22T10:03:07;2.13;;;0.50;;
24357;SDS011;13668;52.154;5.580;2023-12-22T10:05:33;2.75;;;0.60;;
24357;SDS011;13668;52.154;5.580;2023-12-22T10:07:59;0.70;;;0.43;;
24357;SDS011;13668;52.154;5.580;2023-12-22T10:10:26;3.50;;;0.68;;
24357;SDS011;13668;52.154;5.580;2023-12-22T10:12:54;2.45;;;1.02;;
24357;SDS011;13668;52.154;5.580;2023-12-22T10:15:20;5.45;;;1.05;;
24357;SDS011;13668;52.154;5.580;2023-12-22T10:17:48;5.32;;;0.93;;
24357;SDS011;13668;52.154;5.580;2023-12-22T10:20:15;3.42;;;0.73;;
24357;SDS011;13668;52.154;5.580;2023-12-22T10:22:41;2.17;;;0.57;;
24357;SDS011;13668;52.154;5.580;2023-12-22T10:25:07;8.68;;;1.42;;
24357;SDS011;13668;52.154;5.580;2023-12-22T10:27:35;5.03;;;1.15;;
24357;SDS011;13668;52.154;5.580;2023-12-22T10:30:01;5.13;;;1.05;;
24357;SDS011;13668;52.154;5.580;2023-12-22T10:32:28;4.95;;;0.70;;
24357;SDS011;13668;52.154;5.580;2023-12-22T10:34:57;3.78;;;1.10;;
24357;SDS011;13668;52.154;5.580;2023-12-22T10:37:23;1.92;;;0.65;;
24357;SDS011;13668;52.154;5.580;2023-12-22T10:39:52;4.38;;;0.90;;
24357;SDS011;13668;52.154;5.580;2023-12-22T10:42:18;2.95;;;0.85;;
24357;SDS011;13668;52.154;5.580;2023-12-22T10:44:44;3.00;;;1.08;;
24357;SDS011;13668;52.154;5.580;2023-12-22T10:47:11;3.95;;;0.68;;
24357;SDS011;13668;52.154;5.580;2023-12-22T10:49:37;1.65;;;0.68;;
24357;SDS011;13668;52.154;5.580;2023-12-22T10:52:03;1.73;;;0.75;;
24357;SDS011;13668;52.154;5.580;2023-12-22T10:54:29;2.35;;;0.88;;
24357;SDS011;13668;52.154;5.580;2023-12-22T10:56:59;3.00;;;0.73;;
24357;SDS011;13668;52.154;5.580;2023-12-22T10:59:34;4.97;;;0.57;;
24357;SDS011;13668;52.154;5.580;2023-12-22T11:02:03;4.75;;;0.77;;
24357;SDS011;13668;52.154;5.580;2023-12-22T11:04:30;4.78;;;1.08;;
24357;SDS011;13668;52.154;5.580;2023-12-22T11:06:57;2.75;;;1.08;;
24357;SDS011;13668;52.154;5.580;2023-12-22T11:09:24;7.65;;;0.88;;
24357;SDS011;13668;52.154;5.580;2023-12-22T11:11:52;4.00;;;1.20;;
24357;SDS011;13668;52.154;5.580;2023-12-22T11:14:21;7.22;;;2.10;;
24357;SDS011;13668;52.154;5.580;2023-12-22T11:16:47;4.22;;;0.73;;
24357;SDS011;13668;52.154;5.580;2023-12-22T11:19:14;3.15;;;1.20;;
24357;SDS011;13668;52.154;5.580;2023-12-22T11:21:40;5.40;;;1.17;;
24357;SDS011;13668;52.154;5.580;2023-12-22T11:24:07;3.17;;;0.82;;
24357;SDS011;13668;52.154;5.580;2023-12-22T11:26:33;4.97;;;0.73;;
24357;SDS011;13668;52.154;5.580;2023-12-22T11:28:59;5.85;;;0.93;;
24357;SDS011;13668;52.154;5.580;2023-12-22T11:31:28;6.35;;;0.80;;
24357;SDS011;13668;52.154;5.580;2023-12-22T11:33:57;3.10;;;0.88;;
24357;SDS011;13668;52.154;5.580;2023-12-22T11:36:26;5.43;;;1.15;;
24357;SDS011;13668;52.154;5.580;2023-12-22T11:38:54;4.82;;;1.52;;
24357;SDS011;13668;52.154;5.580;2023-12-22T11:41:27;3.30;;;0.90;;
24357;SDS011;13668;52.154;5.580;2023-12-22T11:43:55;3.17;;;0.77;;
24357;SDS011;13668;52.154;5.580;2023-12-22T11:46:22;3.05;;;0.68;;
24357;SDS011;13668;52.154;5.580;2023-12-22T11:48:51;4.53;;;0.90;;
24357;SDS011;13668;52.154;5.580;2023-12-22T11:51:18;3.90;;;1.17;;
24357;SDS011;13668;52.154;5.580;2023-12-22T11:53:45;4.63;;;0.98;;
24357;SDS011;13668;52.154;5.580;2023-12-22T11:56:11;2.05;;;0.98;;
24357;SDS011;13668;52.154;5.580;2023-12-22T11:58:47;2.10;;;0.85;;
24357;SDS011;13668;52.154;5.580;2023-12-22T12:01:18;1.50;;;0.90;;
24357;SDS011;13668;52.154;5.580;2023-12-22T12:03:48;3.10;;;0.73;;
24357;SDS011;13668;52.154;5.580;2023-12-22T12:08:58;3.15;;;0.95;;
24357;SDS011;13668;52.154;5.580;2023-12-22T12:12:08;3.38;;;0.65;;
24357;SDS011;13668;52.154;5.580;2023-12-22T12:14:11;6.85;;;0.85;;
24357;SDS011;13668;52.154;5.580;2023-12-22T12:16:40;6.07;;;0.93;;
24357;SDS011;13668;52.154;5.580;2023-12-22T12:19:09;3.28;;;1.05;;
24357;SDS011;13668;52.154;5.580;2023-12-22T12:21:35;7.47;;;1.35;;
24357;SDS011;13668;52.154;5.580;2023-12-22T12:24:01;2.40;;;0.90;;
24357;SDS011;13668;52.154;5.580;2023-12-22T12:26:30;3.00;;;0.80;;
24357;SDS011;13668;52.154;5.580;2023-12-22T12:28:56;4.18;;;0.77;;
24357;SDS011;13668;52.154;5.580;2023-12-22T12:31:26;4.15;;;0.68;;
24357;SDS011;13668;52.154;5.580;2023-12-22T12:34:00;4.90;;;1.00;;
24357;SDS011;13668;52.154;5.580;2023-12-22T12:36:27;3.03;;;1.00;;
24357;SDS011;13668;52.154;5.580;2023-12-22T12:39:14;4.80;;;1.63;;
24357;SDS011;13668;52.154;5.580;2023-12-22T12:41:40;7.68;;;1.13;;
24357;SDS011;13668;52.154;5.580;2023-12-22T12:44:08;3.15;;;0.68;;
24357;SDS011;13668;52.154;5.580;2023-12-22T12:46:35;6.43;;;1.00;;
24357;SDS011;13668;52.154;5.580;2023-12-22T12:49:02;5.72;;;0.95;;
24357;SDS011;13668;52.154;5.580;2023-12-22T12:51:29;2.58;;;0.68;;
24357;SDS011;13668;52.154;5.580;2023-12-22T12:53:55;6.43;;;0.70;;
24357;SDS011;13668;52.154;5.580;2023-12-22T12:56:21;3.90;;;0.70;;
24357;SDS011;13668;52.154;5.580;2023-12-22T12:58:47;2.15;;;0.50;;
24357;SDS011;13668;52.154;5.580;2023-12-22T13:01:13;5.38;;;0.80;;
24357;SDS011;13668;52.154;5.580;2023-12-22T13:03:56;3.38;;;0.73;;
24357;SDS011;13668;52.154;5.580;2023-12-22T13:06:27;1.92;;;0.63;;
24357;SDS011;13668;52.154;5.580;2023-12-22T13:08:53;7.32;;;1.00;;
24357;SDS011;13668;52.154;5.580;2023-12-22T13:11:22;4.25;;;0.70;;
24357;SDS011;13668;52.154;5.580;2023-12-22T13:13:49;6.55;;;0.77;;
24357;SDS011;13668;52.154;5.580;2023-12-22T13:16:19;3.28;;;0.80;;
24357;SDS011;13668;52.154;5.580;2023-12-22T13:18:46;7.07;;;1.02;;
24357;SDS011;13668;52.154;5.580;2023-12-22T13:21:12;4.32;;;1.35;;
24357;SDS011;13668;52.154;5.580;2023-12-22T13:23:38;5.10;;;1.15;;
24357;SDS011;13668;52.154;5.580;2023-12-22T13:26:04;2.70;;;0.90;;
24357;SDS011;13668;52.154;5.580;2023-12-22T13:28:30;4.93;;;0.60;;
24357;SDS011;13668;52.154;5.580;2023-12-22T13:30:56;5.22;;;0.65;;
24357;SDS011;13668;52.154;5.580;2023-12-22T13:33:22;4.80;;;1.23;;
24357;SDS011;13668;52.154;5.580;2023-12-22T13:35:56;6.63;;;1.35;;
24357;SDS011;13668;52.154;5.580;2023-12-22T13:38:22;3.55;;;0.57;;
24357;SDS011;13668;52.154;5.580;2023-12-22T13:40:48;1.98;;;0.50;;
24357;SDS011;13668;52.154;5.580;2023-12-22T13:43:14;4.55;;;1.65;;
24357;SDS011;13668;52.154;5.580;2023-12-22T13:45:40;3.28;;;0.70;;
24357;SDS011;13668;52.154;5.580;2023-12-22T13:48:06;2.72;;;0.60;;
24357;SDS011;13668;52.154;5.580;2023-12-22T13:50:33;2.88;;;0.95;;
24357;SDS011;13668;52.154;5.580;2023-12-22T13:53:10;2.25;;;1.10;;
24357;SDS011;13668;52.154;5.580;2023-12-22T13:55:37;2.88;;;0.95;;
24357;SDS011;13668;52.154;5.580;2023-12-22T13:58:04;5.45;;;1.25;;
24357;SDS011;13668;52.154;5.580;2023-12-22T14:00:30;4.38;;;1.45;;
24357;SDS011;13668;52.154;5.580;2023-12-22T14:02:56;2.28;;;0.95;;
24357;SDS011;13668;52.154;5.580;2023-12-22T14:05:23;3.10;;;1.27;;
24357;SDS011;13668;52.154;5.580;2023-12-22T14:07:49;4.05;;;0.60;;
24357;SDS011;13668;52.154;5.580;2023-12-22T14:10:15;5.35;;;0.77;;
24357;SDS011;13668;52.154;5.580;2023-12-22T14:12:41;2.42;;;0.98;;
24357;SDS011;13668;52.154;5.580;2023-12-22T14:15:07;4.05;;;0.73;;
24357;SDS011;13668;52.154;5.580;2023-12-22T14:17:33;4.30;;;1.30;;
24357;SDS011;13668;52.154;5.580;2023-12-22T14:19:59;3.00;;;0.80;;
24357;SDS011;13668;52.154;5.580;2023-12-22T14:22:25;4.30;;;0.98;;
24357;SDS011;13668;52.154;5.580;2023-12-22T14:24:52;4.80;;;1.00;;
24357;SDS011;13668;52.154;5.580;2023-12-22T14:27:18;4.10;;;0.65;;
24357;SDS011;13668;52.154;5.580;2023-12-22T14:29:47;5.38;;;0.98;;
24357;SDS011;13668;52.154;5.580;2023-12-22T14:32:13;2.55;;;1.00;;
24357;SDS011;13668;52.154;5.580;2023-12-22T14:34:44;3.65;;;1.05;;
24357;SDS011;13668;52.154;5.580;2023-12-22T14:37:10;3.35;;;1.08;;
24357;SDS011;13668;52.154;5.580;2023-12-22T14:39:36;2.88;;;1.40;;
24357;SDS011;13668;52.154;5.580;2023-12-22T14:42:02;1.90;;;0.82;;
24357;SDS011;13668;52.154;5.580;2023-12-22T14:44:28;3.22;;;0.75;;
24357;SDS011;13668;52.154;5.580;2023-12-22T14:46:54;4.30;;;1.20;;